createdAt,value
2019-01-09T00:01:46.933Z,3.80
2019-01-09T00:04:15.361Z,3.80
2019-01-09T00:06:43.774Z,3.70
2019-01-09T00:09:12.214Z,3.70
2019-01-09T00:11:40.643Z,3.70
2019-01-09T00:14:09.069Z,3.70
2019-01-09T00:16:37.500Z,3.70
2019-01-09T00:19:05.938Z,3.70
2019-01-09T00:21:34.376Z,3.70
2019-01-09T00:24:02.898Z,3.60
2019-01-09T00:26:31.290Z,3.40
2019-01-09T00:28:59.725Z,2.90
2019-01-09T00:31:28.146Z,2.40
2019-01-09T00:33:56.579Z,2.10
2019-01-09T00:36:24.999Z,2.00
2019-01-09T00:38:53.449Z,2.10
2019-01-09T00:41:22.832Z,2.00
2019-01-09T00:43:51.270Z,2.10
2019-01-09T00:46:19.692Z,2.00
2019-01-09T00:48:48.115Z,2.00
2019-01-09T00:51:16.532Z,2.00
2019-01-09T00:53:44.970Z,2.00
2019-01-09T00:56:13.525Z,2.00
2019-01-09T00:58:42.022Z,2.10
2019-01-09T01:01:10.518Z,2.20
2019-01-09T01:04:01.174Z,2.10
2019-01-09T01:06:50.124Z,2.10
2019-01-09T01:09:49.667Z,2.00
2019-01-09T01:12:21.178Z,2.00
2019-01-09T01:15:16.335Z,2.10
2019-01-09T01:18:05.755Z,2.10
2019-01-09T01:20:43.125Z,2.00
2019-01-09T01:23:36.647Z,2.00
2019-01-09T01:26:16.839Z,2.10
2019-01-09T01:29:20.090Z,2.20
2019-01-09T01:32:00.353Z,2.20
2019-01-09T01:34:48.337Z,2.20
2019-01-09T01:37:37.440Z,2.10
2019-01-09T01:40:17.526Z,2.10
2019-01-09T01:42:57.669Z,2.10
2019-01-09T01:45:54.497Z,2.10
2019-01-09T01:48:40.925Z,2.20
2019-01-09T01:51:12.433Z,2.30
2019-01-09T01:54:12.175Z,2.40
2019-01-09T01:57:01.145Z,2.40
2019-01-09T01:59:32.675Z,2.40
2019-01-09T02:02:22.150Z,2.40
2019-01-09T02:04:59.565Z,2.30
2019-01-09T02:08:07.099Z,2.30
2019-01-09T02:10:53.494Z,2.30
2019-01-09T02:13:39.424Z,2.30
2019-01-09T02:16:22.798Z,2.30
2019-01-09T02:19:09.177Z,2.30
2019-01-09T02:21:40.717Z,2.30
2019-01-09T02:24:21.254Z,2.30
2019-01-09T02:26:55.538Z,2.40
2019-01-09T02:29:27.038Z,2.40
2019-01-09T02:32:04.174Z,2.40
2019-01-09T02:34:32.585Z,2.40
2019-01-09T02:37:01.009Z,2.30
2019-01-09T02:39:29.443Z,2.30
2019-01-09T02:41:57.864Z,2.30
2019-01-09T02:44:32.100Z,2.40
2019-01-09T02:46:56.451Z,2.40
2019-01-09T02:49:24.882Z,2.30
2019-01-09T02:51:53.301Z,2.40
2019-01-09T02:54:21.741Z,2.30
2019-01-09T02:56:50.161Z,2.30
2019-01-09T02:59:18.590Z,2.30
2019-01-09T03:01:47.012Z,2.30
2019-01-09T03:04:15.471Z,2.20
2019-01-09T03:06:43.883Z,2.30
2019-01-09T03:09:12.314Z,2.30
2019-01-09T03:11:40.733Z,2.30
2019-01-09T03:14:09.157Z,2.20
2019-01-09T03:16:37.588Z,2.20
2019-01-09T03:19:06.191Z,2.30
2019-01-09T03:21:34.687Z,2.20
2019-01-09T03:24:03.113Z,2.30
2019-01-09T03:26:31.543Z,2.30
2019-01-09T03:29:00.027Z,2.30
2019-01-09T03:31:28.463Z,2.30
2019-01-09T03:33:56.963Z,2.30
2019-01-09T03:36:32.548Z,2.30
2019-01-09T03:38:55.880Z,2.30
2019-01-09T03:41:24.326Z,2.30
2019-01-09T03:43:52.758Z,2.30
2019-01-09T03:46:21.198Z,2.20
2019-01-09T03:48:49.619Z,2.20
2019-01-09T03:51:18.052Z,2.20
2019-01-09T03:53:46.491Z,2.20
2019-01-09T03:56:14.919Z,2.20
2019-01-09T03:58:43.410Z,2.20
2019-01-09T04:01:11.850Z,2.20
2019-01-09T04:03:40.272Z,2.20
2019-01-09T04:06:08.744Z,2.20
2019-01-09T04:08:37.233Z,2.20
2019-01-09T04:11:05.694Z,2.20
2019-01-09T04:13:34.120Z,2.20
2019-01-09T04:16:02.551Z,2.30
2019-01-09T04:18:31.039Z,2.40
2019-01-09T04:20:59.498Z,2.30
2019-01-09T04:23:27.929Z,2.30
2019-01-09T04:25:56.357Z,2.20
2019-01-09T04:28:24.793Z,2.30
2019-01-09T04:30:53.213Z,2.30
2019-01-09T04:33:21.715Z,2.20
2019-01-09T04:35:50.150Z,2.30
2019-01-09T04:38:18.616Z,2.20
2019-01-09T04:40:47.790Z,2.20
2019-01-09T04:43:16.311Z,2.20
2019-01-09T04:45:44.741Z,2.20
2019-01-09T04:48:13.171Z,2.20
2019-01-09T04:50:41.603Z,2.10
2019-01-09T04:53:10.034Z,2.20
2019-01-09T04:55:38.462Z,2.10
2019-01-09T04:58:06.895Z,2.10
2019-01-09T05:00:35.320Z,2.20
2019-01-09T05:03:04.034Z,2.20
2019-01-09T05:05:32.603Z,2.20
2019-01-09T05:08:01.019Z,2.20
2019-01-09T05:10:29.463Z,2.10
2019-01-09T05:12:57.893Z,2.10
2019-01-09T05:15:26.328Z,2.10
2019-01-09T05:17:54.781Z,2.20
2019-01-09T05:20:23.275Z,2.20
2019-01-09T05:22:51.699Z,2.20
2019-01-09T05:25:20.135Z,2.10
2019-01-09T05:27:48.567Z,2.10
2019-01-09T05:30:16.995Z,2.10
2019-01-09T05:32:45.418Z,2.10
2019-01-09T05:35:13.858Z,2.10
2019-01-09T05:37:42.283Z,2.10
2019-01-09T05:40:10.755Z,2.20
2019-01-09T05:42:39.214Z,2.10
2019-01-09T05:45:07.724Z,2.10
2019-01-09T05:47:36.142Z,2.10
2019-01-09T05:50:06.415Z,2.10
2019-01-09T05:52:34.830Z,2.10
2019-01-09T05:55:03.259Z,2.10
2019-01-09T05:57:31.704Z,2.00
2019-01-09T06:00:00.269Z,2.10
2019-01-09T06:02:28.831Z,2.00
2019-01-09T06:04:57.247Z,2.00
2019-01-09T06:07:25.677Z,2.00
2019-01-09T06:09:54.105Z,2.10
2019-01-09T06:12:22.542Z,2.00
2019-01-09T06:14:50.966Z,2.00
2019-01-09T06:17:19.402Z,2.00
2019-01-09T06:19:47.824Z,2.00
2019-01-09T06:22:16.262Z,2.10
2019-01-09T06:24:44.674Z,2.10
2019-01-09T06:27:13.207Z,2.10
2019-01-09T06:29:41.701Z,2.00
2019-01-09T06:32:10.134Z,2.10
2019-01-09T06:34:38.561Z,2.20
2019-01-09T06:37:06.995Z,2.20
2019-01-09T06:39:35.447Z,2.20
2019-01-09T06:42:03.903Z,2.10
2019-01-09T06:44:32.336Z,2.10
2019-01-09T06:47:00.750Z,2.10
2019-01-09T06:49:29.189Z,2.10
2019-01-09T06:51:57.622Z,2.00
2019-01-09T06:54:26.049Z,2.00
2019-01-09T06:56:54.473Z,2.00
2019-01-09T06:59:22.908Z,2.00
2019-01-09T07:01:51.321Z,2.10
2019-01-09T07:04:19.767Z,2.10
2019-01-09T07:06:48.191Z,2.10
2019-01-09T07:09:16.630Z,2.00
2019-01-09T07:11:45.053Z,2.20
2019-01-09T07:14:13.486Z,2.20
2019-01-09T07:16:41.923Z,2.10
2019-01-09T07:19:10.418Z,2.20
2019-01-09T07:21:45.389Z,2.20
2019-01-09T07:24:08.990Z,2.10
2019-01-09T07:26:37.417Z,2.10
2019-01-09T07:29:05.850Z,2.10
2019-01-09T07:31:34.342Z,2.20
2019-01-09T07:34:02.777Z,2.20
2019-01-09T07:36:31.239Z,2.10
2019-01-09T07:38:59.670Z,2.00
2019-01-09T07:41:28.100Z,2.00
2019-01-09T07:43:56.627Z,2.00
2019-01-09T07:46:25.191Z,1.90
2019-01-09T07:48:53.631Z,1.90
2019-01-09T07:51:22.214Z,2.00
2019-01-09T07:53:50.713Z,2.00
2019-01-09T07:56:19.211Z,2.00
2019-01-09T07:58:47.634Z,2.00
2019-01-09T08:01:16.070Z,1.90
2019-01-09T08:03:44.514Z,1.90
2019-01-09T08:06:12.987Z,1.90
2019-01-09T08:08:41.401Z,1.90
2019-01-09T08:11:09.842Z,2.00
2019-01-09T08:13:38.282Z,2.00
2019-01-09T08:16:06.719Z,2.10
2019-01-09T08:18:35.215Z,2.10
2019-01-09T08:21:05.581Z,2.20
2019-01-09T08:23:33.820Z,2.10
2019-01-09T08:26:02.272Z,2.10
2019-01-09T08:28:30.694Z,2.10
2019-01-09T08:30:59.134Z,2.10
2019-01-09T08:33:27.571Z,2.10
2019-01-09T08:35:56.010Z,2.10
2019-01-09T08:38:24.423Z,2.10
2019-01-09T08:40:52.947Z,2.20
2019-01-09T08:43:21.370Z,2.10
2019-01-09T08:45:49.810Z,2.10
2019-01-09T08:48:18.258Z,2.20
2019-01-09T08:50:46.683Z,2.10
2019-01-09T08:53:15.115Z,2.10
2019-01-09T08:55:43.558Z,2.20
2019-01-09T08:58:11.986Z,2.20
2019-01-09T09:00:40.412Z,2.10
2019-01-09T09:03:08.842Z,2.00
2019-01-09T09:05:37.271Z,2.00
2019-01-09T09:08:11.962Z,2.20
2019-01-09T09:10:36.238Z,2.20
2019-01-09T09:13:04.742Z,2.20
2019-01-09T09:15:33.187Z,2.20
2019-01-09T09:18:01.609Z,2.10
2019-01-09T09:20:30.031Z,2.20
2019-01-09T09:22:58.480Z,2.10
2019-01-09T09:25:26.941Z,2.20
2019-01-09T09:27:55.413Z,2.30
2019-01-09T09:30:23.826Z,2.30
2019-01-09T09:32:52.262Z,2.30
2019-01-09T09:35:20.693Z,2.30
2019-01-09T09:37:49.106Z,2.40
2019-01-09T09:40:19.490Z,2.40
2019-01-09T09:42:47.918Z,2.30
2019-01-09T09:45:16.346Z,2.30
2019-01-09T09:47:44.781Z,2.40
2019-01-09T09:50:15.890Z,2.40
2019-01-09T09:52:44.335Z,2.30
2019-01-09T09:55:13.317Z,2.30
2019-01-09T09:57:41.803Z,2.40
2019-01-09T10:00:16.088Z,2.40
2019-01-09T10:02:44.509Z,2.40
2019-01-09T10:05:13.013Z,2.40
2019-01-09T10:07:41.421Z,2.40
2019-01-09T10:10:12.101Z,2.40
2019-01-09T10:12:40.516Z,2.50
2019-01-09T10:15:12.265Z,2.60
2019-01-09T10:17:40.699Z,2.60
2019-01-09T10:20:12.194Z,2.50
2019-01-09T10:22:40.690Z,2.50
2019-01-09T10:25:09.275Z,2.50
2019-01-09T10:27:37.682Z,2.60
2019-01-09T10:30:09.191Z,2.60
2019-01-09T10:32:37.619Z,2.60
2019-01-09T10:35:06.393Z,2.70
2019-01-09T10:37:34.825Z,2.80
2019-01-09T10:40:05.094Z,2.80
2019-01-09T10:42:33.535Z,2.70
2019-01-09T10:45:02.053Z,2.60
2019-01-09T10:47:30.616Z,2.60
2019-01-09T10:49:59.050Z,2.50
2019-01-09T10:52:27.547Z,2.40
2019-01-09T10:54:55.969Z,2.40
2019-01-09T10:57:24.402Z,2.40
2019-01-09T10:59:52.826Z,2.30
2019-01-09T11:02:21.274Z,2.30
2019-01-09T11:04:49.705Z,2.30
2019-01-09T11:07:18.149Z,2.30
2019-01-09T11:09:46.562Z,2.30
2019-01-09T11:12:15.014Z,2.40
2019-01-09T11:14:43.470Z,2.40
2019-01-09T11:17:11.887Z,2.40
2019-01-09T11:19:40.379Z,2.50
2019-01-09T11:22:08.859Z,2.50
2019-01-09T11:24:37.317Z,2.50
2019-01-09T11:27:05.726Z,2.50
2019-01-09T11:29:34.161Z,2.50
2019-01-09T11:32:02.586Z,2.50
2019-01-09T11:34:31.034Z,2.50
2019-01-09T11:36:59.470Z,2.60
2019-01-09T11:39:27.902Z,2.60
2019-01-09T11:41:56.320Z,2.60
2019-01-09T11:44:24.788Z,2.70
2019-01-09T11:46:53.261Z,2.70
2019-01-09T11:49:21.694Z,2.80
2019-01-09T11:51:50.127Z,2.70
2019-01-09T11:54:18.646Z,2.80
2019-01-09T11:56:47.062Z,2.90
2019-01-09T11:59:15.497Z,2.90
2019-01-09T12:01:43.941Z,2.80
2019-01-09T12:04:12.409Z,2.80
2019-01-09T12:06:40.815Z,2.80
2019-01-09T12:09:09.597Z,2.90
2019-01-09T12:11:38.034Z,2.90
2019-01-09T12:14:06.482Z,2.90
2019-01-09T12:16:34.911Z,2.90
2019-01-09T12:19:03.366Z,2.90
2019-01-09T12:21:33.073Z,2.90
2019-01-09T12:24:01.527Z,3.00
2019-01-09T12:26:29.958Z,2.90
2019-01-09T12:28:58.401Z,2.80
2019-01-09T12:31:26.817Z,2.70
2019-01-09T12:33:55.250Z,2.50
2019-01-09T12:36:23.681Z,2.60
2019-01-09T12:38:52.138Z,2.50
2019-01-09T12:41:20.552Z,2.50
2019-01-09T12:43:49.017Z,2.40
2019-01-09T12:46:17.430Z,2.30
2019-01-09T12:48:45.885Z,2.30
2019-01-09T12:51:14.367Z,2.30
2019-01-09T12:53:42.816Z,2.40
2019-01-09T12:56:11.269Z,2.40
2019-01-09T12:58:39.670Z,2.50
2019-01-09T13:01:08.111Z,2.40
2019-01-09T13:03:36.545Z,2.40
2019-01-09T13:06:04.981Z,2.40
2019-01-09T13:08:33.487Z,2.40
2019-01-09T13:11:01.924Z,2.40
2019-01-09T13:13:30.343Z,2.30
2019-01-09T13:15:58.802Z,2.30
2019-01-09T13:18:27.219Z,2.30
2019-01-09T13:20:55.663Z,2.30
2019-01-09T13:23:24.087Z,2.20
2019-01-09T13:25:52.527Z,2.20
2019-01-09T13:28:20.942Z,2.20
2019-01-09T13:30:49.398Z,2.20
2019-01-09T13:33:17.823Z,2.20
2019-01-09T13:35:46.281Z,2.20
2019-01-09T13:38:14.711Z,2.30
2019-01-09T13:40:43.142Z,2.20
2019-01-09T13:43:11.578Z,2.20
2019-01-09T13:45:40.020Z,2.20
2019-01-09T13:48:08.447Z,2.20
2019-01-09T13:50:36.899Z,2.20
2019-01-09T13:53:05.323Z,2.30
2019-01-09T13:55:33.844Z,2.30
2019-01-09T13:58:02.273Z,2.30
2019-01-09T14:00:30.702Z,2.40
2019-01-09T14:02:59.139Z,2.40
2019-01-09T14:05:27.575Z,2.40
2019-01-09T14:07:55.998Z,2.40
2019-01-09T14:10:25.450Z,2.30
2019-01-09T14:12:53.870Z,2.30
2019-01-09T14:15:22.663Z,2.30
2019-01-09T14:17:51.162Z,2.20
2019-01-09T14:20:19.699Z,2.20
2019-01-09T14:22:48.127Z,2.20
2019-01-09T14:25:17.268Z,2.20
2019-01-09T14:27:45.781Z,2.20
2019-01-09T14:30:16.925Z,2.20
2019-01-09T14:32:45.435Z,2.20
2019-01-09T14:35:13.919Z,2.30
2019-01-09T14:37:42.358Z,2.30
2019-01-09T14:40:15.858Z,2.30
2019-01-09T14:42:44.291Z,2.20
2019-01-09T14:45:14.145Z,2.20
2019-01-09T14:47:42.592Z,2.20
2019-01-09T14:50:16.943Z,2.20
2019-01-09T14:52:45.438Z,2.20
2019-01-09T14:55:14.294Z,2.20
2019-01-09T14:57:42.808Z,2.10
2019-01-09T15:00:14.310Z,2.00
2019-01-09T15:02:42.740Z,2.10
2019-01-09T15:05:11.493Z,2.00
2019-01-09T15:07:39.994Z,2.00
2019-01-09T15:10:17.115Z,1.90
2019-01-09T15:12:45.799Z,1.90
2019-01-09T15:15:16.360Z,1.90
2019-01-09T15:17:44.778Z,1.90
2019-01-09T15:20:16.152Z,1.80
2019-01-09T15:22:44.702Z,1.90
2019-01-09T15:25:14.489Z,1.80
2019-01-09T15:27:42.930Z,1.80
2019-01-09T15:30:16.814Z,1.90
2019-01-09T15:32:45.312Z,1.80
2019-01-09T15:35:14.216Z,1.70
2019-01-09T15:37:42.665Z,1.90
2019-01-09T15:40:19.099Z,1.70
2019-01-09T15:42:48.265Z,1.80
2019-01-09T15:45:16.782Z,1.80
2019-01-09T15:47:45.208Z,1.80
2019-01-09T15:50:18.648Z,1.80
2019-01-09T15:52:47.132Z,1.80
2019-01-09T15:55:17.011Z,1.70
2019-01-09T15:57:46.969Z,1.70
2019-01-09T16:00:27.150Z,1.80
2019-01-09T16:02:55.579Z,1.70
2019-01-09T16:05:24.277Z,1.60
2019-01-09T16:07:52.701Z,1.70
2019-01-09T16:10:22.995Z,1.50
2019-01-09T16:12:51.423Z,1.60
2019-01-09T16:15:20.001Z,1.50
2019-01-09T16:17:48.491Z,1.50
2019-01-09T16:20:20.040Z,1.50
2019-01-09T16:22:48.526Z,1.50
2019-01-09T16:25:17.092Z,1.60
2019-01-09T16:27:45.514Z,1.50
2019-01-09T16:30:33.867Z,1.60
2019-01-09T16:32:59.302Z,1.60
2019-01-09T16:35:30.358Z,1.60
2019-01-09T16:37:58.800Z,1.60
2019-01-09T16:40:27.244Z,1.80
2019-01-09T16:42:55.922Z,1.70
2019-01-09T16:45:24.425Z,1.60
2019-01-09T16:47:52.845Z,1.60
2019-01-09T16:50:22.810Z,1.70
2019-01-09T16:52:51.237Z,1.70
2019-01-09T16:55:19.726Z,1.70
2019-01-09T16:57:48.346Z,1.70
2019-01-09T17:00:31.796Z,1.80
2019-01-09T17:03:00.222Z,1.70
2019-01-09T17:05:28.882Z,1.70
2019-01-09T17:07:57.502Z,1.70
2019-01-09T17:10:32.310Z,1.70
2019-01-09T17:12:56.283Z,1.70
2019-01-09T17:15:24.776Z,1.60
2019-01-09T17:17:53.261Z,1.70
2019-01-09T17:20:26.751Z,1.60
2019-01-09T17:22:55.378Z,1.60
2019-01-09T17:25:23.802Z,1.60
2019-01-09T17:27:52.506Z,1.60
2019-01-09T17:30:23.219Z,1.60
2019-01-09T17:32:51.694Z,1.60
2019-01-09T17:35:20.186Z,1.60
2019-01-09T17:37:48.714Z,1.60
2019-01-09T17:40:19.096Z,1.60
2019-01-09T17:42:47.977Z,1.70
2019-01-09T17:45:16.477Z,1.70
2019-01-09T17:47:44.892Z,1.60
2019-01-09T17:50:30.837Z,1.60
2019-01-09T17:52:59.256Z,1.60
2019-01-09T17:55:27.985Z,1.60
2019-01-09T17:57:56.544Z,1.60
2019-01-09T18:00:28.794Z,1.70
2019-01-09T18:02:57.206Z,1.70
2019-01-09T18:05:25.651Z,1.60
2019-01-09T18:07:54.088Z,1.60
2019-01-09T18:10:24.421Z,1.60
2019-01-09T18:12:53.160Z,1.70
2019-01-09T18:15:23.214Z,1.70
2019-01-09T18:17:52.359Z,1.70
2019-01-09T18:20:23.147Z,1.50
2019-01-09T18:22:51.719Z,1.60
2019-01-09T18:25:22.358Z,1.70
2019-01-09T18:27:50.870Z,1.60
2019-01-09T18:30:28.456Z,1.60
2019-01-09T18:33:08.903Z,1.60
2019-01-09T18:35:40.790Z,1.60
2019-01-09T18:38:28.930Z,1.60
2019-01-09T18:41:33.574Z,1.60
2019-01-09T18:44:10.849Z,1.60
2019-01-09T18:47:15.389Z,1.60
2019-01-09T18:49:59.008Z,1.60
2019-01-09T18:52:42.635Z,1.60
2019-01-09T18:55:11.197Z,1.60
2019-01-09T18:57:39.639Z,1.60
2019-01-09T19:00:11.139Z,1.70
2019-01-09T19:02:39.570Z,1.60
2019-01-09T19:05:08.127Z,1.70
2019-01-09T19:07:36.707Z,1.70
2019-01-09T19:10:08.207Z,1.70
2019-01-09T19:12:36.643Z,1.70
2019-01-09T19:15:08.146Z,1.60
2019-01-09T19:17:36.571Z,1.70
2019-01-09T19:20:07.793Z,1.70
2019-01-09T19:22:36.306Z,1.60
2019-01-09T19:25:08.076Z,1.70
2019-01-09T19:27:36.582Z,1.60
2019-01-09T19:30:08.079Z,1.60
2019-01-09T19:32:36.518Z,1.60
2019-01-09T19:35:06.166Z,1.70
2019-01-09T19:37:34.852Z,1.70
2019-01-09T19:40:04.921Z,1.70
2019-01-09T19:42:33.346Z,1.70
2019-01-09T19:45:01.778Z,1.70
2019-01-09T19:47:30.203Z,1.70
2019-01-09T19:49:58.642Z,1.70
2019-01-09T19:52:27.071Z,1.60
2019-01-09T19:54:55.519Z,1.60
2019-01-09T19:57:24.002Z,1.60
2019-01-09T19:59:52.517Z,1.60
2019-01-09T20:02:21.007Z,1.50
2019-01-09T20:04:49.514Z,1.60
2019-01-09T20:07:18.007Z,1.60
2019-01-09T20:09:47.292Z,1.50
2019-01-09T20:12:15.807Z,1.50
2019-01-09T20:14:44.302Z,1.60
2019-01-09T20:17:12.744Z,1.60
2019-01-09T20:19:41.324Z,1.50
2019-01-09T20:22:09.846Z,1.60
2019-01-09T20:24:38.432Z,1.60
2019-01-09T20:27:07.042Z,1.60
2019-01-09T20:29:35.462Z,1.60
2019-01-09T20:32:04.058Z,1.60
2019-01-09T20:34:32.564Z,1.70
2019-01-09T20:37:00.973Z,1.60
2019-01-09T20:39:29.432Z,1.50
2019-01-09T20:41:57.858Z,1.40
2019-01-09T20:44:26.341Z,1.50
2019-01-09T20:46:54.859Z,1.60
2019-01-09T20:49:23.299Z,1.70
2019-01-09T20:51:51.742Z,1.60
2019-01-09T20:54:20.246Z,1.50
2019-01-09T20:56:48.737Z,1.50
2019-01-09T20:59:17.303Z,1.50
2019-01-09T21:01:45.926Z,1.50
2019-01-09T21:04:14.499Z,1.40
2019-01-09T21:06:43.140Z,1.40
2019-01-09T21:09:11.621Z,1.40
2019-01-09T21:11:44.589Z,1.40
2019-01-09T21:14:10.295Z,1.40
2019-01-09T21:16:38.795Z,1.40
2019-01-09T21:19:07.254Z,1.40
2019-01-09T21:21:35.757Z,1.50
2019-01-09T21:24:04.256Z,1.60
2019-01-09T21:26:32.675Z,1.50
2019-01-09T21:29:01.186Z,1.40
2019-01-09T21:31:29.689Z,1.50
2019-01-09T21:33:58.130Z,1.40
2019-01-09T21:36:26.630Z,1.40
2019-01-09T21:38:55.065Z,1.40
2019-01-09T21:41:23.496Z,1.40
2019-01-09T21:43:51.923Z,1.40
2019-01-09T21:46:20.410Z,1.60
2019-01-09T21:48:48.847Z,1.40
2019-01-09T21:51:17.271Z,1.40
2019-01-09T21:53:45.735Z,1.30
2019-01-09T21:56:14.201Z,1.30
2019-01-09T21:58:42.673Z,1.40
2019-01-09T22:01:11.161Z,1.40
2019-01-09T22:03:39.602Z,1.30
2019-01-09T22:06:08.258Z,1.30
2019-01-09T22:08:36.724Z,1.40
2019-01-09T22:11:05.579Z,1.50
2019-01-09T22:13:34.023Z,1.40
2019-01-09T22:16:02.443Z,1.30
2019-01-09T22:18:30.871Z,1.30
2019-01-09T22:20:59.291Z,1.40
2019-01-09T22:23:27.737Z,1.40
2019-01-09T22:25:56.157Z,1.40
2019-01-09T22:28:24.656Z,1.50
2019-01-09T22:30:53.093Z,1.40
2019-01-09T22:33:21.534Z,1.30
2019-01-09T22:35:49.958Z,1.30
2019-01-09T22:38:18.379Z,1.40
2019-01-09T22:40:46.815Z,1.30
2019-01-09T22:43:15.231Z,1.30
2019-01-09T22:45:43.743Z,1.30
2019-01-09T22:48:12.157Z,1.30
2019-01-09T22:50:40.597Z,1.30
2019-01-09T22:53:09.017Z,1.20
2019-01-09T22:55:37.463Z,1.20
2019-01-09T22:58:05.948Z,1.20
2019-01-09T23:00:46.311Z,1.20
2019-01-09T23:03:14.871Z,1.30
2019-01-09T23:05:43.617Z,1.20
2019-01-09T23:08:12.177Z,1.30
2019-01-09T23:10:40.760Z,1.30
2019-01-09T23:13:09.208Z,1.30
2019-01-09T23:15:37.659Z,1.50
2019-01-09T23:18:06.416Z,1.50
2019-01-09T23:20:35.078Z,1.50
2019-01-09T23:23:03.548Z,1.40
2019-01-09T23:25:32.123Z,1.30
2019-01-09T23:28:00.686Z,1.30
2019-01-09T23:30:29.169Z,1.30
2019-01-09T23:32:57.673Z,1.40
2019-01-09T23:35:26.106Z,1.40
2019-01-09T23:37:54.534Z,1.50
2019-01-09T23:40:23.133Z,1.40
2019-01-09T23:42:51.714Z,1.40
2019-01-09T23:45:20.199Z,1.40
2019-01-09T23:47:48.655Z,1.40
2019-01-09T23:50:17.253Z,1.40
2019-01-09T23:52:45.749Z,1.40
2019-01-09T23:55:14.233Z,1.50
2019-01-09T23:57:42.667Z,1.50
